sensor_id;sensor_type;location;lat;lon;timestamp;pressure;altitude;pressure_sealevel;temperature;humidity
74794;BME280;63320;50.768;6.724;2023-06-26T00:01:17;99930.47;;;23.87;46.04
74794;BME280;63320;50.768;6.724;2023-06-26T00:03:44;99926.59;;;23.73;46.89
74794;BME280;63320;50.768;6.724;2023-06-26T00:06:09;99923.91;;;23.65;46.93
74794;BME280;63320;50.768;6.724;2023-06-26T00:08:35;99924.41;;;23.69;47.05
74794;BME280;63320;50.768;6.724;2023-06-26T00:11:00;99924.88;;;23.56;47.35
74794;BME280;63320;50.768;6.724;2023-06-26T00:13:25;99919.22;;;23.67;47.01
74794;BME280;63320;50.768;6.724;2023-06-26T00:15:51;99922.91;;;23.66;47.18
74794;BME280;63320;50.768;6.724;2023-06-26T00:18:16;99911.97;;;23.60;47.08
74794;BME280;63320;50.768;6.724;2023-06-26T00:20:43;99921.97;;;23.41;47.80
74794;BME280;63320;50.768;6.724;2023-06-26T00:23:08;99920.31;;;23.48;48.08
74794;BME280;63320;50.768;6.724;2023-06-26T00:25:33;99928.28;;;23.24;48.28
74794;BME280;63320;50.768;6.724;2023-06-26T00:27:59;99919.75;;;23.29;48.39
74794;BME280;63320;50.768;6.724;2023-06-26T00:30:25;99930.47;;;23.20;48.29
74794;BME280;63320;50.768;6.724;2023-06-26T00:32:50;99921.72;;;23.10;48.51
74794;BME280;63320;50.768;6.724;2023-06-26T00:35:16;99919.75;;;23.20;47.96
74794;BME280;63320;50.768;6.724;2023-06-26T00:37:42;99916.94;;;23.38;47.71
74794;BME280;63320;50.768;6.724;2023-06-26T00:40:08;99925.59;;;23.16;48.54
74794;BME280;63320;50.768;6.724;2023-06-26T00:42:34;99914.47;;;23.03;48.37
74794;BME280;63320;50.768;6.724;2023-06-26T00:44:59;99911.97;;;23.01;48.99
74794;BME280;63320;50.768;6.724;2023-06-26T00:47:25;99914.19;;;22.88;49.24
74794;BME280;63320;50.768;6.724;2023-06-26T00:49:51;99917.44;;;22.91;49.38
74794;BME280;63320;50.768;6.724;2023-06-26T00:52:17;99918.81;;;23.04;48.72
74794;BME280;63320;50.768;6.724;2023-06-26T00:54:44;99917.06;;;22.86;48.87
74794;BME280;63320;50.768;6.724;2023-06-26T00:57:09;99915.78;;;22.90;49.24
74794;BME280;63320;50.768;6.724;2023-06-26T00:59:35;99913.81;;;22.74;49.31
74794;BME280;63320;50.768;6.724;2023-06-26T01:02:00;99910.84;;;22.86;48.96
74794;BME280;63320;50.768;6.724;2023-06-26T01:04:26;99906.84;;;22.56;49.31
74794;BME280;63320;50.768;6.724;2023-06-26T01:06:51;99901.81;;;22.87;48.87
74794;BME280;63320;50.768;6.724;2023-06-26T01:09:18;99904.91;;;23.00;48.45
74794;BME280;63320;50.768;6.724;2023-06-26T01:11:45;99894.03;;;23.02;48.65
74794;BME280;63320;50.768;6.724;2023-06-26T01:14:11;99885.34;;;22.82;48.83
74794;BME280;63320;50.768;6.724;2023-06-26T01:16:37;99892.38;;;22.74;49.10
74794;BME280;63320;50.768;6.724;2023-06-26T01:19:04;99890.28;;;22.60;49.26
74794;BME280;63320;50.768;6.724;2023-06-26T01:21:33;99893.53;;;22.72;49.23
74794;BME280;63320;50.768;6.724;2023-06-26T01:24:06;99889.34;;;22.69;48.94
74794;BME280;63320;50.768;6.724;2023-06-26T01:26:34;99886.38;;;22.81;48.57
74794;BME280;63320;50.768;6.724;2023-06-26T01:29:02;99887.31;;;22.71;48.34
74794;BME280;63320;50.768;6.724;2023-06-26T01:31:30;99890.56;;;22.83;48.78
74794;BME280;63320;50.768;6.724;2023-06-26T01:33:57;99893.22;;;22.83;48.25
74794;BME280;63320;50.768;6.724;2023-06-26T01:36:23;99890.06;;;22.80;48.60
74794;BME280;63320;50.768;6.724;2023-06-26T01:38:49;99883.88;;;22.53;48.85
74794;BME280;63320;50.768;6.724;2023-06-26T01:41:14;99894.38;;;22.20;49.96
74794;BME280;63320;50.768;6.724;2023-06-26T01:43:55;99888.31;;;22.18;50.10
74794;BME280;63320;50.768;6.724;2023-06-26T01:46:25;99892.34;;;22.14;50.66
74794;BME280;63320;50.768;6.724;2023-06-26T01:49:03;99896.91;;;22.22;49.63
74794;BME280;63320;50.768;6.724;2023-06-26T01:51:35;99914.81;;;22.47;49.55
74794;BME280;63320;50.768;6.724;2023-06-26T01:54:04;99923.22;;;21.91;52.69
74794;BME280;63320;50.768;6.724;2023-06-26T01:56:31;99908.00;;;21.28;54.79
74794;BME280;63320;50.768;6.724;2023-06-26T01:58:59;99903.81;;;21.26;54.83
74794;BME280;63320;50.768;6.724;2023-06-26T02:01:25;99904.25;;;21.31;54.62
74794;BME280;63320;50.768;6.724;2023-06-26T02:03:50;99903.34;;;21.40;53.89
74794;BME280;63320;50.768;6.724;2023-06-26T02:06:15;99901.97;;;21.71;53.23
74794;BME280;63320;50.768;6.724;2023-06-26T02:08:42;99900.44;;;21.87;52.17
74794;BME280;63320;50.768;6.724;2023-06-26T02:11:07;99905.78;;;21.87;52.26
74794;BME280;63320;50.768;6.724;2023-06-26T02:13:32;99915.38;;;21.89;51.89
74794;BME280;63320;50.768;6.724;2023-06-26T02:15:59;99908.09;;;21.82;52.35
74794;BME280;63320;50.768;6.724;2023-06-26T02:18:24;99910.16;;;21.70;52.11
74794;BME280;63320;50.768;6.724;2023-06-26T02:20:49;99907.94;;;21.65;52.63
74794;BME280;63320;50.768;6.724;2023-06-26T02:23:15;99920.47;;;21.83;51.89
74794;BME280;63320;50.768;6.724;2023-06-26T02:25:40;99914.28;;;21.82;51.73
74794;BME280;63320;50.768;6.724;2023-06-26T02:28:06;99905.09;;;22.03;50.83
74794;BME280;63320;50.768;6.724;2023-06-26T02:30:31;99913.06;;;22.12;50.92
74794;BME280;63320;50.768;6.724;2023-06-26T02:32:58;99911.84;;;22.25;49.83
74794;BME280;63320;50.768;6.724;2023-06-26T02:35:23;99916.81;;;22.19;50.20
74794;BME280;63320;50.768;6.724;2023-06-26T02:37:48;99915.56;;;22.32;50.02
74794;BME280;63320;50.768;6.724;2023-06-26T02:40:14;99923.47;;;22.15;49.81
74794;BME280;63320;50.768;6.724;2023-06-26T02:42:39;99925.16;;;22.16;50.34
74794;BME280;63320;50.768;6.724;2023-06-26T02:45:05;99926.44;;;22.12;50.21
74794;BME280;63320;50.768;6.724;2023-06-26T02:47:31;99931.09;;;22.28;50.31
74794;BME280;63320;50.768;6.724;2023-06-26T02:49:58;99937.66;;;22.34;49.57
74794;BME280;63320;50.768;6.724;2023-06-26T02:52:23;99935.31;;;22.31;49.69
74794;BME280;63320;50.768;6.724;2023-06-26T02:54:48;99945.63;;;22.08;50.67
74794;BME280;63320;50.768;6.724;2023-06-26T02:57:14;99948.25;;;22.00;51.43
74794;BME280;63320;50.768;6.724;2023-06-26T02:59:39;99949.81;;;21.57;52.21
74794;BME280;63320;50.768;6.724;2023-06-26T03:02:04;99949.31;;;21.71;52.33
74794;BME280;63320;50.768;6.724;2023-06-26T03:04:30;99954.94;;;21.68;52.88
74794;BME280;63320;50.768;6.724;2023-06-26T03:06:56;99956.63;;;21.51;53.44
74794;BME280;63320;50.768;6.724;2023-06-26T03:09:22;99957.63;;;21.50;53.59
74794;BME280;63320;50.768;6.724;2023-06-26T03:11:47;99956.84;;;21.58;52.74
74794;BME280;63320;50.768;6.724;2023-06-26T03:14:12;99960.78;;;21.81;52.14
74794;BME280;63320;50.768;6.724;2023-06-26T03:16:38;99961.69;;;21.72;52.75
74794;BME280;63320;50.768;6.724;2023-06-26T03:19:03;99960.06;;;21.61;53.53
74794;BME280;63320;50.768;6.724;2023-06-26T03:21:28;99968.16;;;21.52;54.12
74794;BME280;63320;50.768;6.724;2023-06-26T03:23:55;99962.38;;;21.56;53.78
74794;BME280;63320;50.768;6.724;2023-06-26T03:26:20;99974.06;;;21.55;54.51
74794;BME280;63320;50.768;6.724;2023-06-26T03:28:46;99967.50;;;21.50;54.56
74794;BME280;63320;50.768;6.724;2023-06-26T03:31:11;99974.69;;;21.49;55.07
74794;BME280;63320;50.768;6.724;2023-06-26T03:33:37;99968.66;;;21.37;55.74
74794;BME280;63320;50.768;6.724;2023-06-26T03:36:03;99975.28;;;21.33;55.87
74794;BME280;63320;50.768;6.724;2023-06-26T03:38:28;99976.84;;;21.36;56.27
74794;BME280;63320;50.768;6.724;2023-06-26T03:40:55;99971.16;;;21.11;57.29
74794;BME280;63320;50.768;6.724;2023-06-26T03:43:20;99968.72;;;21.18;57.47
74794;BME280;63320;50.768;6.724;2023-06-26T03:45:46;99961.94;;;21.33;57.46
74794;BME280;63320;50.768;6.724;2023-06-26T03:48:11;99961.69;;;21.54;56.71
74794;BME280;63320;50.768;6.724;2023-06-26T03:50:36;99970.09;;;21.32;58.01
74794;BME280;63320;50.768;6.724;2023-06-26T03:53:02;99972.78;;;21.22;58.66
74794;BME280;63320;50.768;6.724;2023-06-26T03:55:27;99965.03;;;21.29;58.52
74794;BME280;63320;50.768;6.724;2023-06-26T03:57:54;99971.22;;;21.29;58.88
74794;BME280;63320;50.768;6.724;2023-06-26T04:00:19;99972.66;;;21.24;59.12
74794;BME280;63320;50.768;6.724;2023-06-26T04:02:44;99979.69;;;21.34;59.15
74794;BME280;63320;50.768;6.724;2023-06-26T04:05:10;99978.28;;;21.30;59.31
74794;BME280;63320;50.768;6.724;2023-06-26T04:07:37;99982.94;;;21.56;58.54
74794;BME280;63320;50.768;6.724;2023-06-26T04:10:02;99988.50;;;21.44;59.00
74794;BME280;63320;50.768;6.724;2023-06-26T04:12:28;99991.41;;;21.51;59.14
74794;BME280;63320;50.768;6.724;2023-06-26T04:14:54;99995.81;;;21.42;59.55
74794;BME280;63320;50.768;6.724;2023-06-26T04:17:20;100005.28;;;21.37;59.88
74794;BME280;63320;50.768;6.724;2023-06-26T04:19:45;100001.50;;;21.30;59.96
74794;BME280;63320;50.768;6.724;2023-06-26T04:22:10;100010.03;;;21.43;59.52
74794;BME280;63320;50.768;6.724;2023-06-26T04:24:36;100022.41;;;21.71;58.78
74794;BME280;63320;50.768;6.724;2023-06-26T04:27:01;100011.09;;;21.78;58.86
74794;BME280;63320;50.768;6.724;2023-06-26T04:29:27;100017.03;;;21.54;59.65
74794;BME280;63320;50.768;6.724;2023-06-26T04:31:53;100025.91;;;21.54;59.72
74794;BME280;63320;50.768;6.724;2023-06-26T04:34:19;100021.91;;;21.58;59.66
74794;BME280;63320;50.768;6.724;2023-06-26T04:36:44;100024.56;;;21.40;59.91
74794;BME280;63320;50.768;6.724;2023-06-26T04:39:09;100024.75;;;21.19;60.99
74794;BME280;63320;50.768;6.724;2023-06-26T04:41:35;100030.03;;;20.92;62.31
74794;BME280;63320;50.768;6.724;2023-06-26T04:44:00;100034.09;;;21.06;61.34
74794;BME280;63320;50.768;6.724;2023-06-26T04:46:25;100034.84;;;20.88;60.99
74794;BME280;63320;50.768;6.724;2023-06-26T04:48:52;100034.97;;;20.87;61.66
74794;BME280;63320;50.768;6.724;2023-06-26T04:51:17;100037.94;;;20.93;61.49
74794;BME280;63320;50.768;6.724;2023-06-26T04:53:42;100039.28;;;21.07;60.58
74794;BME280;63320;50.768;6.724;2023-06-26T04:56:08;100045.66;;;20.97;60.74
74794;BME280;63320;50.768;6.724;2023-06-26T04:58:33;100048.16;;;20.98;60.60
74794;BME280;63320;50.768;6.724;2023-06-26T05:00:58;100051.25;;;21.03;60.15
74794;BME280;63320;50.768;6.724;2023-06-26T05:03:24;100054.41;;;20.89;60.87
74794;BME280;63320;50.768;6.724;2023-06-26T05:05:50;100049.38;;;21.13;59.53
74794;BME280;63320;50.768;6.724;2023-06-26T05:08:17;100048.03;;;21.00;60.18
74794;BME280;63320;50.768;6.724;2023-06-26T05:10:43;100048.41;;;21.14;59.48
74794;BME280;63320;50.768;6.724;2023-06-26T05:13:09;100049.13;;;21.07;60.24
74794;BME280;63320;50.768;6.724;2023-06-26T05:15:34;100060.53;;;21.09;59.85
74794;BME280;63320;50.768;6.724;2023-06-26T05:18:00;100066.59;;;21.01;60.02
74794;BME280;63320;50.768;6.724;2023-06-26T05:20:25;100058.03;;;20.88;60.29
74794;BME280;63320;50.768;6.724;2023-06-26T05:22:52;100061.38;;;21.09;60.03
74794;BME280;63320;50.768;6.724;2023-06-26T05:25:18;100056.34;;;20.97;60.56
74794;BME280;63320;50.768;6.724;2023-06-26T05:27:44;100055.53;;;20.86;61.50
74794;BME280;63320;50.768;6.724;2023-06-26T05:30:11;100060.72;;;20.88;61.56
74794;BME280;63320;50.768;6.724;2023-06-26T05:32:38;100063.09;;;20.91;61.74
74794;BME280;63320;50.768;6.724;2023-06-26T05:35:05;100064.09;;;20.90;61.76
74794;BME280;63320;50.768;6.724;2023-06-26T05:37:32;100056.34;;;20.87;62.21
74794;BME280;63320;50.768;6.724;2023-06-26T05:40:00;100068.91;;;20.77;62.48
74794;BME280;63320;50.768;6.724;2023-06-26T05:42:26;100072.78;;;21.02;61.75
74794;BME280;63320;50.768;6.724;2023-06-26T05:44:52;100070.13;;;20.92;62.37
74794;BME280;63320;50.768;6.724;2023-06-26T05:47:17;100083.25;;;20.85;62.55
74794;BME280;63320;50.768;6.724;2023-06-26T05:49:42;100087.03;;;20.83;62.36
74794;BME280;63320;50.768;6.724;2023-06-26T05:52:09;100087.19;;;20.81;62.20
74794;BME280;63320;50.768;6.724;2023-06-26T05:54:35;100084.75;;;20.88;61.91
74794;BME280;63320;50.768;6.724;2023-06-26T05:57:03;100100.53;;;20.91;62.28
74794;BME280;63320;50.768;6.724;2023-06-26T05:59:31;100100.94;;;20.96;62.13
74794;BME280;63320;50.768;6.724;2023-06-26T06:01:57;100119.66;;;20.96;62.71
74794;BME280;63320;50.768;6.724;2023-06-26T06:04:22;100110.06;;;21.03;62.22
74794;BME280;63320;50.768;6.724;2023-06-26T06:06:47;100108.06;;;21.25;61.77
74794;BME280;63320;50.768;6.724;2023-06-26T06:09:12;100115.13;;;21.06;62.15
74794;BME280;63320;50.768;6.724;2023-06-26T06:11:38;100119.94;;;20.93;62.34
74794;BME280;63320;50.768;6.724;2023-06-26T06:14:05;100117.00;;;20.77;63.23
74794;BME280;63320;50.768;6.724;2023-06-26T06:16:30;100122.91;;;20.71;63.28
74794;BME280;63320;50.768;6.724;2023-06-26T06:18:55;100110.38;;;20.81;63.15
74794;BME280;63320;50.768;6.724;2023-06-26T06:21:21;100116.56;;;20.81;63.38
74794;BME280;63320;50.768;6.724;2023-06-26T06:23:46;100114.91;;;20.61;64.16
74794;BME280;63320;50.768;6.724;2023-06-26T06:26:11;100123.47;;;20.84;63.84
74794;BME280;63320;50.768;6.724;2023-06-26T06:28:38;100104.19;;;20.80;64.57
74794;BME280;63320;50.768;6.724;2023-06-26T06:31:04;100116.72;;;20.99;63.38
74794;BME280;63320;50.768;6.724;2023-06-26T06:33:30;100116.97;;;21.06;63.14
74794;BME280;63320;50.768;6.724;2023-06-26T06:35:55;100136.13;;;20.82;63.66
74794;BME280;63320;50.768;6.724;2023-06-26T06:38:20;100131.78;;;20.81;64.30
74794;BME280;63320;50.768;6.724;2023-06-26T06:40:46;100135.09;;;21.12;63.38
74794;BME280;63320;50.768;6.724;2023-06-26T06:43:11;100133.97;;;21.34;62.83
74794;BME280;63320;50.768;6.724;2023-06-26T06:45:36;100136.25;;;21.00;64.67
74794;BME280;63320;50.768;6.724;2023-06-26T06:48:03;100127.25;;;20.91;64.87
74794;BME280;63320;50.768;6.724;2023-06-26T06:50:29;100146.25;;;20.88;64.83
74794;BME280;63320;50.768;6.724;2023-06-26T06:52:54;100154.97;;;20.61;65.02
74794;BME280;63320;50.768;6.724;2023-06-26T06:55:19;100149.19;;;21.14;64.28
74794;BME280;63320;50.768;6.724;2023-06-26T06:57:45;100157.22;;;21.14;64.75
74794;BME280;63320;50.768;6.724;2023-06-26T07:00:12;100165.06;;;21.25;64.30
74794;BME280;63320;50.768;6.724;2023-06-26T07:02:39;100167.78;;;20.96;64.32
74794;BME280;63320;50.768;6.724;2023-06-26T07:05:06;100171.13;;;21.17;64.06
74794;BME280;63320;50.768;6.724;2023-06-26T07:07:33;100182.25;;;21.03;64.95
74794;BME280;63320;50.768;6.724;2023-06-26T07:09:59;100171.28;;;20.97;64.79
74794;BME280;63320;50.768;6.724;2023-06-26T07:12:24;100179.59;;;20.93;64.95
74794;BME280;63320;50.768;6.724;2023-06-26T07:14:50;100173.94;;;21.06;64.10
74794;BME280;63320;50.768;6.724;2023-06-26T07:17:15;100177.22;;;20.90;65.18
74794;BME280;63320;50.768;6.724;2023-06-26T07:19:40;100192.66;;;20.77;65.35
74794;BME280;63320;50.768;6.724;2023-06-26T07:22:07;100199.81;;;20.48;66.15
74794;BME280;63320;50.768;6.724;2023-06-26T07:24:32;100206.81;;;20.39;67.21
74794;BME280;63320;50.768;6.724;2023-06-26T07:26:58;100202.06;;;20.62;65.89
74794;BME280;63320;50.768;6.724;2023-06-26T07:29:23;100216.16;;;20.83;64.94
74794;BME280;63320;50.768;6.724;2023-06-26T07:31:48;100191.56;;;20.80;66.24
74794;BME280;63320;50.768;6.724;2023-06-26T07:34:14;100199.69;;;20.78;66.27
74794;BME280;63320;50.768;6.724;2023-06-26T07:36:39;100214.34;;;20.84;65.26
74794;BME280;63320;50.768;6.724;2023-06-26T07:39:06;100203.75;;;20.63;65.88
74794;BME280;63320;50.768;6.724;2023-06-26T07:41:31;100203.78;;;20.92;64.91
74794;BME280;63320;50.768;6.724;2023-06-26T07:43:56;100204.34;;;20.76;64.78
74794;BME280;63320;50.768;6.724;2023-06-26T07:46:22;100200.69;;;21.06;64.22
74794;BME280;63320;50.768;6.724;2023-06-26T07:48:47;100201.13;;;21.02;64.45
74794;BME280;63320;50.768;6.724;2023-06-26T07:51:12;100205.75;;;21.09;64.12
74794;BME280;63320;50.768;6.724;2023-06-26T07:53:38;100205.19;;;21.15;63.06
74794;BME280;63320;50.768;6.724;2023-06-26T07:56:05;100211.38;;;21.16;62.52
74794;BME280;63320;50.768;6.724;2023-06-26T07:58:30;100224.06;;;21.04;62.63
74794;BME280;63320;50.768;6.724;2023-06-26T08:00:56;100225.16;;;21.02;62.46
74794;BME280;63320;50.768;6.724;2023-06-26T08:03:21;100207.72;;;20.88;62.47
74794;BME280;63320;50.768;6.724;2023-06-26T08:05:46;100210.53;;;21.15;61.59
74794;BME280;63320;50.768;6.724;2023-06-26T08:08:12;100214.56;;;21.58;61.08
74794;BME280;63320;50.768;6.724;2023-06-26T08:10:37;100219.69;;;21.42;61.57
74794;BME280;63320;50.768;6.724;2023-06-26T08:13:04;100227.72;;;21.42;61.13
74794;BME280;63320;50.768;6.724;2023-06-26T08:15:29;100221.81;;;21.29;61.55
74794;BME280;63320;50.768;6.724;2023-06-26T08:17:54;100228.75;;;21.68;60.64
74794;BME280;63320;50.768;6.724;2023-06-26T08:20:20;100230.50;;;21.60;60.95
74794;BME280;63320;50.768;6.724;2023-06-26T08:22:45;100231.84;;;21.73;59.67
74794;BME280;63320;50.768;6.724;2023-06-26T08:25:11;100231.38;;;21.88;60.14
74794;BME280;63320;50.768;6.724;2023-06-26T08:27:36;100246.78;;;21.76;59.29
74794;BME280;63320;50.768;6.724;2023-06-26T08:30:03;100248.50;;;21.58;59.38
74794;BME280;63320;50.768;6.724;2023-06-26T08:32:29;100250.91;;;21.70;59.60
74794;BME280;63320;50.768;6.724;2023-06-26T08:34:54;100246.38;;;22.18;58.65
74794;BME280;63320;50.768;6.724;2023-06-26T08:37:19;100243.81;;;22.26;58.64
74794;BME280;63320;50.768;6.724;2023-06-26T08:39:45;100247.09;;;22.10;59.29
74794;BME280;63320;50.768;6.724;2023-06-26T08:42:10;100246.69;;;22.05;59.30
74794;BME280;63320;50.768;6.724;2023-06-26T08:44:36;100253.13;;;21.75;58.90
74794;BME280;63320;50.768;6.724;2023-06-26T08:47:05;100244.16;;;22.13;58.75
74794;BME280;63320;50.768;6.724;2023-06-26T08:49:37;100243.38;;;22.31;57.74
74794;BME280;63320;50.768;6.724;2023-06-26T08:52:09;100256.97;;;22.10;56.63
74794;BME280;63320;50.768;6.724;2023-06-26T08:54:42;100263.06;;;22.02;56.57
74794;BME280;63320;50.768;6.724;2023-06-26T08:57:08;100258.53;;;22.12;56.96
74794;BME280;63320;50.768;6.724;2023-06-26T08:59:33;100256.53;;;21.67;55.75
74794;BME280;63320;50.768;6.724;2023-06-26T09:01:59;100272.69;;;21.85;55.94
74794;BME280;63320;50.768;6.724;2023-06-26T09:04:26;100260.56;;;21.91;55.14
74794;BME280;63320;50.768;6.724;2023-06-26T09:06:52;100261.16;;;21.85;55.98
74794;BME280;63320;50.768;6.724;2023-06-26T09:09:17;100265.13;;;22.08;55.57
74794;BME280;63320;50.768;6.724;2023-06-26T09:11:42;100263.97;;;21.73;55.84
74794;BME280;63320;50.768;6.724;2023-06-26T09:14:08;100266.16;;;21.97;56.03
74794;BME280;63320;50.768;6.724;2023-06-26T09:16:39;100269.47;;;21.82;55.94
74794;BME280;63320;50.768;6.724;2023-06-26T09:19:08;100274.91;;;22.00;55.61
74794;BME280;63320;50.768;6.724;2023-06-26T09:21:35;100272.63;;;22.14;54.07
74794;BME280;63320;50.768;6.724;2023-06-26T09:24:00;100260.97;;;22.33;53.74
74794;BME280;63320;50.768;6.724;2023-06-26T09:26:26;100264.56;;;22.24;53.77
74794;BME280;63320;50.768;6.724;2023-06-26T09:28:52;100265.03;;;22.00;53.22
74794;BME280;63320;50.768;6.724;2023-06-26T09:31:17;100263.44;;;22.07;53.54
74794;BME280;63320;50.768;6.724;2023-06-26T09:33:42;100255.22;;;21.81;54.14
74794;BME280;63320;50.768;6.724;2023-06-26T09:36:08;100276.16;;;22.05;53.31
74794;BME280;63320;50.768;6.724;2023-06-26T09:38:35;100271.34;;;22.18;53.32
74794;BME280;63320;50.768;6.724;2023-06-26T09:41:01;100274.97;;;22.27;52.15
74794;BME280;63320;50.768;6.724;2023-06-26T09:43:26;100276.41;;;22.49;52.56
74794;BME280;63320;50.768;6.724;2023-06-26T09:45:52;100284.88;;;22.72;51.87
74794;BME280;63320;50.768;6.724;2023-06-26T09:48:18;100282.84;;;22.29;51.83
74794;BME280;63320;50.768;6.724;2023-06-26T09:50:44;100290.31;;;22.35;51.41
74794;BME280;63320;50.768;6.724;2023-06-26T09:53:10;100297.03;;;22.39;50.98
74794;BME280;63320;50.768;6.724;2023-06-26T09:55:37;100291.22;;;22.06;51.82
74794;BME280;63320;50.768;6.724;2023-06-26T09:58:03;100292.06;;;22.16;51.60
74794;BME280;63320;50.768;6.724;2023-06-26T10:00:29;100298.28;;;22.07;50.74
74794;BME280;63320;50.768;6.724;2023-06-26T10:02:55;100305.94;;;21.83;51.61
74794;BME280;63320;50.768;6.724;2023-06-26T10:05:20;100297.34;;;21.89;52.21
74794;BME280;63320;50.768;6.724;2023-06-26T10:07:46;100289.84;;;22.12;50.74
74794;BME280;63320;50.768;6.724;2023-06-26T10:10:12;100296.44;;;22.55;50.80
74794;BME280;63320;50.768;6.724;2023-06-26T10:12:39;100319.00;;;22.15;50.10
74794;BME280;63320;50.768;6.724;2023-06-26T10:15:06;100310.25;;;22.03;50.10
74794;BME280;63320;50.768;6.724;2023-06-26T10:17:36;100304.94;;;22.40;49.90
74794;BME280;63320;50.768;6.724;2023-06-26T10:20:04;100305.56;;;22.34;49.01
74794;BME280;63320;50.768;6.724;2023-06-26T10:22:36;100320.94;;;22.60;48.52
74794;BME280;63320;50.768;6.724;2023-06-26T10:25:05;100317.63;;;22.38;48.91
74794;BME280;63320;50.768;6.724;2023-06-26T10:27:35;100319.03;;;22.42;48.79
74794;BME280;63320;50.768;6.724;2023-06-26T10:30:06;100309.63;;;22.66;46.12
74794;BME280;63320;50.768;6.724;2023-06-26T10:32:35;100310.34;;;22.58;46.84
74794;BME280;63320;50.768;6.724;2023-06-26T10:35:02;100315.97;;;22.65;46.38
74794;BME280;63320;50.768;6.724;2023-06-26T10:37:40;100310.34;;;22.86;47.52
74794;BME280;63320;50.768;6.724;2023-06-26T10:40:07;100325.16;;;22.62;47.25
74794;BME280;63320;50.768;6.724;2023-06-26T10:42:35;100331.19;;;22.37;48.15
74794;BME280;63320;50.768;6.724;2023-06-26T10:45:10;100322.50;;;22.25;47.37
74794;BME280;63320;50.768;6.724;2023-06-26T10:47:36;100330.13;;;22.57;46.16
74794;BME280;63320;50.768;6.724;2023-06-26T10:50:16;100335.47;;;22.57;46.15
74794;BME280;63320;50.768;6.724;2023-06-26T10:52:42;100317.44;;;22.59;47.17
74794;BME280;63320;50.768;6.724;2023-06-26T10:55:08;100329.63;;;22.71;45.91
74794;BME280;63320;50.768;6.724;2023-06-26T10:57:35;100312.94;;;22.50;46.13
74794;BME280;63320;50.768;6.724;2023-06-26T11:00:14;100315.16;;;22.82;45.79
74794;BME280;63320;50.768;6.724;2023-06-26T11:02:48;100316.81;;;22.93;44.10
74794;BME280;63320;50.768;6.724;2023-06-26T11:05:23;100328.84;;;22.79;45.71
74794;BME280;63320;50.768;6.724;2023-06-26T11:08:03;100326.34;;;22.50;46.00
74794;BME280;63320;50.768;6.724;2023-06-26T11:10:28;100329.78;;;22.33;45.64
74794;BME280;63320;50.768;6.724;2023-06-26T11:12:54;100325.69;;;22.93;44.98
74794;BME280;63320;50.768;6.724;2023-06-26T11:15:26;100328.66;;;23.00;44.82
74794;BME280;63320;50.768;6.724;2023-06-26T11:17:53;100328.78;;;22.71;46.38
74794;BME280;63320;50.768;6.724;2023-06-26T11:20:18;100336.22;;;22.49;44.10
74794;BME280;63320;50.768;6.724;2023-06-26T11:22:44;100330.69;;;22.88;44.95
74794;BME280;63320;50.768;6.724;2023-06-26T11:25:10;100333.94;;;23.27;44.86
74794;BME280;63320;50.768;6.724;2023-06-26T11:27:38;100345.91;;;22.88;45.73
74794;BME280;63320;50.768;6.724;2023-06-26T11:30:04;100351.19;;;22.80;44.86
74794;BME280;63320;50.768;6.724;2023-06-26T11:32:31;100361.38;;;22.66;43.87
74794;BME280;63320;50.768;6.724;2023-06-26T11:34:56;100348.66;;;22.68;42.43
74794;BME280;63320;50.768;6.724;2023-06-26T11:37:22;100341.22;;;22.99;42.14
74794;BME280;63320;50.768;6.724;2023-06-26T11:39:47;100339.84;;;23.13;42.54
74794;BME280;63320;50.768;6.724;2023-06-26T11:42:13;100342.84;;;23.46;38.99
74794;BME280;63320;50.768;6.724;2023-06-26T11:44:40;100363.59;;;23.08;39.85
74794;BME280;63320;50.768;6.724;2023-06-26T11:47:06;100351.03;;;23.44;40.61
74794;BME280;63320;50.768;6.724;2023-06-26T11:49:33;100346.34;;;23.11;40.47
74794;BME280;63320;50.768;6.724;2023-06-26T11:51:58;100345.53;;;23.46;41.10
74794;BME280;63320;50.768;6.724;2023-06-26T11:54:25;100358.03;;;23.37;40.41
74794;BME280;63320;50.768;6.724;2023-06-26T11:56:57;100346.59;;;23.53;40.76
74794;BME280;63320;50.768;6.724;2023-06-26T11:59:23;100356.66;;;23.69;39.51
74794;BME280;63320;50.768;6.724;2023-06-26T12:01:50;100346.25;;;23.66;40.00
74794;BME280;63320;50.768;6.724;2023-06-26T12:04:17;100355.81;;;23.68;39.62
74794;BME280;63320;50.768;6.724;2023-06-26T12:06:46;100349.16;;;23.55;38.28
74794;BME280;63320;50.768;6.724;2023-06-26T12:09:13;100351.47;;;23.93;38.01
74794;BME280;63320;50.768;6.724;2023-06-26T12:11:41;100354.72;;;23.61;38.04
74794;BME280;63320;50.768;6.724;2023-06-26T12:14:07;100351.44;;;23.67;35.86
74794;BME280;63320;50.768;6.724;2023-06-26T12:16:34;100355.88;;;23.76;36.61
74794;BME280;63320;50.768;6.724;2023-06-26T12:19:00;100360.84;;;23.89;37.84
74794;BME280;63320;50.768;6.724;2023-06-26T12:21:45;100365.72;;;23.86;35.25
74794;BME280;63320;50.768;6.724;2023-06-26T12:24:14;100366.47;;;23.78;36.63
74794;BME280;63320;50.768;6.724;2023-06-26T12:26:41;100373.31;;;23.55;38.16
74794;BME280;63320;50.768;6.724;2023-06-26T12:29:08;100370.69;;;23.81;37.92
74794;BME280;63320;50.768;6.724;2023-06-26T12:31:34;100381.00;;;24.11;37.85
74794;BME280;63320;50.768;6.724;2023-06-26T12:34:00;100371.72;;;24.06;36.91
74794;BME280;63320;50.768;6.724;2023-06-26T12:36:26;100389.41;;;23.72;37.08
74794;BME280;63320;50.768;6.724;2023-06-26T12:38:54;100392.00;;;23.64;37.51
74794;BME280;63320;50.768;6.724;2023-06-26T12:41:20;100380.69;;;23.70;38.68
74794;BME280;63320;50.768;6.724;2023-06-26T12:43:48;100383.84;;;23.66;38.85
74794;BME280;63320;50.768;6.724;2023-06-26T12:46:14;100392.22;;;23.53;38.47
74794;BME280;63320;50.768;6.724;2023-06-26T12:48:40;100398.22;;;23.83;38.89